Time;durP1;ratioP1;P1;durP2;ratioP2;P2;SDS_P1;SDS_P2;PMS_P1;PMS_P2;Temp;Humidity;BMP_temperature;BMP_pressure;BME280_temperature;BME280_humidity;BME280_pressure;Samples;Min_cycle;Max_cycle;Signal;HPM_P1;HPM_P2
2022/07/05 00:00:38;;;;;;;;;;;;;;;21.40;100.00;97468.72;5014529;28;19920;-80
2022/07/05 00:03:03;;;;;;;;;;;;;;;21.36;100.00;97459.19;5014333;28;20007;-79
2022/07/05 00:05:28;;;;;;;;;;;;;;;21.33;100.00;97464.94;5013558;28;19963;-77
2022/07/05 00:07:54;;;;;;;;;;;;;;;21.27;100.00;97468.31;5014120;28;20398;-78
2022/07/05 00:10:19;;;;;;;;;;;;;;;21.20;100.00;97462.69;5013994;28;19919;-77
2022/07/05 00:12:45;;;;;;;;;;;;;;;21.12;100.00;97461.78;5014258;28;19909;-79
2022/07/05 00:15:10;;;;;;;;;;;;;;;21.18;100.00;97450.25;5014558;28;19920;-80
2022/07/05 00:17:35;;;;;;;;;;;;;;;21.15;100.00;97445.16;5013898;28;19973;-79
2022/07/05 00:20:01;;;;;;;;;;;;;;;21.12;100.00;97451.78;5014235;28;19912;-79
2022/07/05 00:22:27;;;;;;;;;;;;;;;21.06;100.00;97458.69;5013933;28;19935;-78
2022/07/05 00:24:52;;;;;;;;;;;;;;;21.02;100.00;97451.00;5013940;28;19913;-78
2022/07/05 00:27:17;;;;;;;;;;;;;;;21.00;100.00;97448.47;5013871;28;19913;-78
2022/07/05 00:29:44;;;;;;;;;;;;;;;20.99;100.00;97446.75;5013490;28;19915;-78
2022/07/05 00:32:09;;;;;;;;;;;;;;;20.98;100.00;97445.03;5013647;28;20020;-78
2022/07/05 00:34:35;;;;;;;;;;;;;;;20.96;100.00;97441.63;5014077;28;19952;-81
2022/07/05 00:37:00;;;;;;;;;;;;;;;20.89;100.00;97443.28;5014370;28;20026;-81
2022/07/05 00:39:26;;;;;;;;;;;;;;;20.87;100.00;97441.75;5013379;28;19970;-82
2022/07/05 00:41:52;;;;;;;;;;;;;;;20.86;100.00;97438.16;5038357;28;19928;-81
2022/07/05 00:44:17;;;;;;;;;;;;;;;20.83;100.00;97427.59;5014258;28;19913;-80
2022/07/05 00:46:43;;;;;;;;;;;;;;;20.74;100.00;97427.72;5012460;28;19935;-80
2022/07/05 00:49:08;;;;;;;;;;;;;;;20.69;100.00;97422.78;5014076;28;19913;-81
2022/07/05 00:51:37;;;;;;;;;;;;;;;20.64;100.00;97419.66;5013821;28;19916;-81
2022/07/05 00:54:03;;;;;;;;;;;;;;;20.65;100.00;97429.53;5011504;28;19921;-81
2022/07/05 00:56:28;;;;;;;;;;;;;;;20.62;100.00;97429.00;5013732;28;19944;-81
2022/07/05 00:58:54;;;;;;;;;;;;;;;20.59;100.00;97415.75;5030130;28;19944;-81
2022/07/05 01:01:19;;;;;;;;;;;;;;;20.60;100.00;97423.75;5021606;28;19917;-81
2022/07/05 01:03:45;;;;;;;;;;;;;;;20.57;100.00;97421.34;5011650;28;19924;-81
2022/07/05 01:06:10;;;;;;;;;;;;;;;20.61;100.00;97420.00;5014376;28;20010;-81
2022/07/05 01:08:37;;;;;;;;;;;;;;;20.59;100.00;97413.03;5014470;28;20380;-81
2022/07/05 01:11:03;;;;;;;;;;;;;;;20.54;100.00;97425.25;5015014;28;20291;-81
2022/07/05 01:13:28;;;;;;;;;;;;;;;20.47;100.00;97413.28;5017197;28;20003;-80
2022/07/05 01:15:53;;;;;;;;;;;;;;;20.44;100.00;97420.91;5015913;28;19963;-80
2022/07/05 01:18:19;;;;;;;;;;;;;;;20.49;100.00;97424.00;5017837;28;19921;-80
2022/07/05 01:20:45;;;;;;;;;;;;;;;20.45;100.00;97419.91;5017666;28;20121;-81
2022/07/05 01:23:11;;;;;;;;;;;;;;;20.48;100.00;97422.31;5014904;28;19952;-81
2022/07/05 01:25:36;;;;;;;;;;;;;;;20.37;100.00;97420.69;5014516;28;19967;-80
2022/07/05 01:28:02;;;;;;;;;;;;;;;20.33;100.00;97424.72;5016766;28;20342;-82
2022/07/05 01:30:28;;;;;;;;;;;;;;;20.29;100.00;97434.22;5014089;28;19961;-81
2022/07/05 01:32:53;;;;;;;;;;;;;;;20.32;100.00;97438.50;5016993;28;19940;-80
2022/07/05 01:35:20;;;;;;;;;;;;;;;20.23;100.00;97440.25;5017271;28;19974;-80
2022/07/05 01:37:49;;;;;;;;;;;;;;;20.28;100.00;97434.38;5023169;28;19929;-81
2022/07/05 01:40:14;;;;;;;;;;;;;;;20.30;100.00;97433.19;5014919;28;20264;-80
2022/07/05 01:42:40;;;;;;;;;;;;;;;20.24;100.00;97444.66;5017194;28;19935;-81
2022/07/05 01:45:05;;;;;;;;;;;;;;;20.21;100.00;97444.16;5014407;28;20273;-80
2022/07/05 01:47:40;;;;;;;;;;;;;;;20.32;100.00;97441.19;5015956;28;19979;-78
2022/07/05 01:50:06;;;;;;;;;;;;;;;20.29;100.00;97436.09;5033058;28;20388;-80
2022/07/05 01:52:31;;;;;;;;;;;;;;;20.29;100.00;97446.94;5016886;28;19913;-82
2022/07/05 01:55:01;;;;;;;;;;;;;;;20.20;100.00;97442.44;5016394;28;19913;-82
2022/07/05 01:57:27;;;;;;;;;;;;;;;20.15;100.00;97458.38;5015726;28;19913;-82
2022/07/05 01:59:52;;;;;;;;;;;;;;;20.12;100.00;97445.09;5016814;28;19919;-82
2022/07/05 02:02:18;;;;;;;;;;;;;;;19.95;100.00;97453.09;5016752;28;19921;-82
2022/07/05 02:04:43;;;;;;;;;;;;;;;19.95;100.00;97444.94;5013168;28;19913;-81
2022/07/05 02:07:09;;;;;;;;;;;;;;;19.95;100.00;97449.50;5016835;28;20321;-80
2022/07/05 02:09:34;;;;;;;;;;;;;;;19.87;100.00;97444.84;5015938;28;19955;-82
2022/07/05 02:12:00;;;;;;;;;;;;;;;19.80;100.00;97448.34;5013702;28;19936;-81
2022/07/05 02:14:25;;;;;;;;;;;;;;;19.77;100.00;97449.53;5015397;28;20315;-80
2022/07/05 02:16:50;;;;;;;;;;;;;;;19.76;100.00;97450.50;5013243;28;19914;-80
2022/07/05 02:19:16;;;;;;;;;;;;;;;19.81;100.00;97448.19;5013519;28;19944;-78
2022/07/05 02:21:41;;;;;;;;;;;;;;;19.72;100.00;97449.09;5011636;28;19917;-80
2022/07/05 02:24:07;;;;;;;;;;;;;;;19.70;100.00;97451.13;5016157;28;19988;-80
2022/07/05 02:26:32;;;;;;;;;;;;;;;19.65;100.00;97448.03;5012192;28;19913;-82
2022/07/05 02:28:57;;;;;;;;;;;;;;;19.62;100.00;97453.78;5032883;28;20344;-80
2022/07/05 02:31:23;;;;;;;;;;;;;;;19.56;100.00;97445.38;5013885;28;19950;-81
2022/07/05 02:33:48;;;;;;;;;;;;;;;19.56;100.00;97451.69;5013019;28;19917;-82
2022/07/05 02:36:14;;;;;;;;;;;;;;;19.52;100.00;97452.97;5015742;28;19959;-82
2022/07/05 02:38:39;;;;;;;;;;;;;;;19.54;100.00;97448.22;5015410;28;19913;-81
2022/07/05 02:41:08;;;;;;;;;;;;;;;19.47;100.00;97449.88;5016247;28;20387;-82
2022/07/05 02:43:34;;;;;;;;;;;;;;;19.44;100.00;97453.72;5015817;28;20467;-82
2022/07/05 02:46:03;;;;;;;;;;;;;;;19.37;100.00;97454.47;5027492;28;19913;-80
2022/07/05 02:48:28;;;;;;;;;;;;;;;19.35;100.00;97460.03;5012698;28;19968;-81
2022/07/05 02:50:53;;;;;;;;;;;;;;;19.43;100.00;97462.03;5015528;28;20304;-82
2022/07/05 02:53:19;;;;;;;;;;;;;;;19.45;100.00;97460.88;5016296;28;19931;-82
2022/07/05 02:55:44;;;;;;;;;;;;;;;19.41;100.00;97456.75;5015021;28;19920;-82
2022/07/05 02:58:10;;;;;;;;;;;;;;;19.47;100.00;97458.00;5016135;28;19952;-82
2022/07/05 03:00:35;;;;;;;;;;;;;;;19.44;100.00;97450.19;5015515;28;19916;-82
2022/07/05 03:03:00;;;;;;;;;;;;;;;19.51;100.00;97453.09;5015910;28;19913;-81
2022/07/05 03:05:26;;;;;;;;;;;;;;;19.55;100.00;97462.66;5015781;28;19962;-83
2022/07/05 03:07:51;;;;;;;;;;;;;;;19.57;100.00;97456.06;5015173;28;19913;-81
2022/07/05 03:10:16;;;;;;;;;;;;;;;19.49;100.00;97453.28;5014653;28;20436;-79
2022/07/05 03:12:42;;;;;;;;;;;;;;;19.56;100.00;97448.97;5031863;28;19920;-82
2022/07/05 03:15:07;;;;;;;;;;;;;;;19.65;100.00;97458.91;5015706;28;19920;-82
2022/07/05 03:17:33;;;;;;;;;;;;;;;19.60;100.00;97452.19;5015268;28;19920;-82
2022/07/05 03:19:59;;;;;;;;;;;;;;;19.57;100.00;97456.06;5015160;28;19920;-82
2022/07/05 03:22:24;;;;;;;;;;;;;;;19.58;100.00;97463.22;5015028;28;19939;-83
2022/07/05 03:24:49;;;;;;;;;;;;;;;19.68;100.00;97458.59;5015441;28;19979;-81
2022/07/05 03:27:15;;;;;;;;;;;;;;;19.71;100.00;97457.41;5014901;28;19933;-81
2022/07/05 03:29:40;;;;;;;;;;;;;;;19.77;100.00;97464.94;5014424;28;19917;-80
2022/07/05 03:32:06;;;;;;;;;;;;;;;19.75;100.00;97464.25;5014964;28;20012;-81
2022/07/05 03:34:31;;;;;;;;;;;;;;;19.76;100.00;97460.50;5015186;28;20375;-82
2022/07/05 03:36:56;;;;;;;;;;;;;;;19.77;100.00;97473.09;5015205;28;19913;-81
2022/07/05 03:39:22;;;;;;;;;;;;;;;19.79;100.00;97466.50;5015040;28;19913;-82
2022/07/05 03:41:47;;;;;;;;;;;;;;;19.91;100.00;97467.97;5014822;28;19917;-82
2022/07/05 03:44:13;;;;;;;;;;;;;;;19.92;100.00;97472.41;5015135;28;20319;-82
2022/07/05 03:46:38;;;;;;;;;;;;;;;19.91;100.00;97467.97;5014860;28;19920;-82
2022/07/05 03:49:03;;;;;;;;;;;;;;;19.96;100.00;97465.63;5014734;28;19919;-82
2022/07/05 03:51:29;;;;;;;;;;;;;;;19.96;100.00;97462.09;5013967;28;19913;-82
2022/07/05 03:53:54;;;;;;;;;;;;;;;20.02;100.00;97470.47;5014740;28;20090;-81
2022/07/05 03:56:22;;;;;;;;;;;;;;;19.92;100.00;97466.97;5014844;28;20016;-82
2022/07/05 03:58:48;;;;;;;;;;;;;;;20.07;100.00;97461.84;5015423;28;19913;-82
2022/07/05 04:01:14;;;;;;;;;;;;;;;20.17;100.00;97459.91;5019271;28;20031;-82
2022/07/05 04:03:40;;;;;;;;;;;;;;;20.14;100.00;97462.06;5014957;28;20415;-81
2022/07/05 04:06:05;;;;;;;;;;;;;;;20.12;100.00;97461.38;5014833;28;20353;-82
2022/07/05 04:08:31;;;;;;;;;;;;;;;20.11;100.00;97463.25;5014301;28;20335;-82
2022/07/05 04:10:56;;;;;;;;;;;;;;;20.34;100.00;97460.91;5014470;28;20264;-82
2022/07/05 04:13:21;;;;;;;;;;;;;;;20.44;100.00;97459.81;5014451;28;20012;-82
2022/07/05 04:15:47;;;;;;;;;;;;;;;20.54;100.00;97457.00;5014690;28;19913;-82
2022/07/05 04:18:12;;;;;;;;;;;;;;;20.63;100.00;97468.78;5014516;28;19913;-83
2022/07/05 04:20:37;;;;;;;;;;;;;;;20.74;100.00;97463.06;5014240;28;20321;-82
2022/07/05 04:23:04;;;;;;;;;;;;;;;20.92;100.00;97466.56;5013693;28;19970;-82
2022/07/05 04:25:29;;;;;;;;;;;;;;;21.08;100.00;97467.56;5014500;28;20059;-83
2022/07/05 04:27:54;;;;;;;;;;;;;;;21.17;100.00;97471.16;5014314;28;20388;-82
2022/07/05 04:30:21;;;;;;;;;;;;;;;21.17;100.00;97475.75;5013417;28;19920;-83
2022/07/05 04:32:46;;;;;;;;;;;;;;;21.20;100.00;97472.72;5014049;28;19952;-81
2022/07/05 04:35:11;;;;;;;;;;;;;;;21.27;100.00;97466.47;5014170;28;20376;-83
2022/07/05 04:37:37;;;;;;;;;;;;;;;21.40;100.00;97471.44;5014049;28;19917;-83
2022/07/05 04:40:03;;;;;;;;;;;;;;;21.35;100.00;97468.38;5018692;28;19913;-81
2022/07/05 04:42:29;;;;;;;;;;;;;;;21.31;100.00;97473.28;5011823;28;20324;-80
2022/07/05 04:44:54;;;;;;;;;;;;;;;21.46;100.00;97470.78;5013910;28;19913;-80
2022/07/05 04:47:19;;;;;;;;;;;;;;;21.55;100.00;97470.66;5012933;28;19920;-82
2022/07/05 04:49:45;;;;;;;;;;;;;;;21.60;100.00;97472.88;5012684;28;19913;-79
2022/07/05 04:52:10;;;;;;;;;;;;;;;21.81;100.00;97472.44;5013808;28;19919;-79
2022/07/05 04:54:36;;;;;;;;;;;;;;;22.59;98.18;97473.72;5029792;28;19917;-82
2022/07/05 04:57:01;;;;;;;;;;;;;;;23.91;89.26;97473.00;5011378;28;19913;-81
2022/07/05 04:59:27;;;;;;;;;;;;;;;24.74;79.42;97470.31;5029466;28;19913;-82
2022/07/05 05:01:52;;;;;;;;;;;;;;;25.30;77.49;97472.50;5012488;28;19983;-84
2022/07/05 05:04:17;;;;;;;;;;;;;;;26.63;70.96;97468.44;5013264;28;19958;-81
2022/07/05 05:06:43;;;;;;;;;;;;;;;28.02;65.28;97460.88;5013642;28;19920;-81
2022/07/05 05:09:08;;;;;;;;;;;;;;;28.44;61.35;97462.53;5013800;28;20402;-81
2022/07/05 05:11:34;;;;;;;;;;;;;;;28.84;60.28;97454.31;5013587;28;19913;-81
2022/07/05 05:13:59;;;;;;;;;;;;;;;29.62;58.02;97436.84;5014257;28;20394;-81
2022/07/05 05:16:24;;;;;;;;;;;;;;;30.45;54.68;97449.66;5011776;28;19948;-80
2022/07/05 05:18:50;;;;;;;;;;;;;;;31.06;52.96;97446.22;5010916;28;19975;-79
2022/07/05 05:21:15;;;;;;;;;;;;;;;31.84;50.10;97438.16;5011329;28;20244;-79
2022/07/05 05:23:41;;;;;;;;;;;;;;;32.11;48.61;97437.63;5009699;28;19913;-79
2022/07/05 05:26:06;;;;;;;;;;;;;;;32.96;45.13;97426.31;5010495;28;19917;-79
2022/07/05 05:28:31;;;;;;;;;;;;;;;33.60;42.55;97423.47;5010658;28;19920;-78
2022/07/05 05:30:57;;;;;;;;;;;;;;;33.32;41.63;97417.78;5011194;28;19916;-79
2022/07/05 05:33:22;;;;;;;;;;;;;;;34.05;40.62;97419.97;5017445;28;19917;-79
2022/07/05 05:35:48;;;;;;;;;;;;;;;34.70;39.33;97423.25;5013201;28;19920;-78
2022/07/05 05:38:13;;;;;;;;;;;;;;;34.48;39.11;97425.88;5010815;28;20008;-79
2022/07/05 05:40:41;;;;;;;;;;;;;;;35.16;38.05;97419.31;5011353;28;19921;-80
2022/07/05 05:43:06;;;;;;;;;;;;;;;35.72;36.13;97419.06;5012918;28;20348;-78
2022/07/05 05:45:32;;;;;;;;;;;;;;;35.18;36.96;97420.75;5012519;28;20066;-79
2022/07/05 05:47:57;;;;;;;;;;;;;;;34.66;37.19;97425.69;5013442;28;19951;-78
2022/07/05 05:50:27;;;;;;;;;;;;;;;35.58;36.49;97430.84;5012223;28;20002;-77
2022/07/05 05:52:53;;;;;;;;;;;;;;;35.13;37.50;97431.78;5010992;28;19936;-80
2022/07/05 05:55:18;;;;;;;;;;;;;;;34.95;37.62;97443.13;5016548;28;19917;-77
2022/07/05 05:57:44;;;;;;;;;;;;;;;35.50;37.26;97445.97;5016098;28;20050;-78
2022/07/05 06:00:10;;;;;;;;;;;;;;;35.69;37.58;97444.63;5014110;28;19936;-79
2022/07/05 06:02:35;;;;;;;;;;;;;;;35.68;37.51;97448.53;5016008;28;19999;-80
2022/07/05 06:05:00;;;;;;;;;;;;;;;35.42;37.70;97454.78;5016541;28;20390;-77
2022/07/05 06:07:26;;;;;;;;;;;;;;;36.27;37.42;97457.13;5013839;28;19917;-80
2022/07/05 06:09:51;;;;;;;;;;;;;;;36.68;35.66;97450.91;5013466;28;19916;-80
2022/07/05 06:12:17;;;;;;;;;;;;;;;36.66;36.12;97455.94;5016384;28;19923;-80
2022/07/05 06:14:42;;;;;;;;;;;;;;;36.43;36.24;97456.19;5012726;28;19917;-79
2022/07/05 06:17:07;;;;;;;;;;;;;;;34.76;38.13;97450.03;5011884;28;20354;-80
2022/07/05 06:19:33;;;;;;;;;;;;;;;34.77;37.66;97449.78;5013020;28;20352;-80
2022/07/05 06:21:58;;;;;;;;;;;;;;;34.31;38.42;97452.75;5013433;28;19927;-78
2022/07/05 06:24:24;;;;;;;;;;;;;;;34.56;37.48;97458.81;5013543;28;20391;-79
2022/07/05 06:26:49;;;;;;;;;;;;;;;35.78;35.54;97445.03;5010715;28;20040;-80
2022/07/05 06:29:14;;;;;;;;;;;;;;;37.39;33.41;97445.97;5012210;28;19917;-80
2022/07/05 06:31:40;;;;;;;;;;;;;;;38.40;32.10;97438.22;5011516;28;19971;-79
2022/07/05 06:34:05;;;;;;;;;;;;;;;38.68;31.24;97437.72;5012642;28;19920;-78
2022/07/05 06:36:31;;;;;;;;;;;;;;;39.03;31.11;97443.41;5013719;28;20320;-80
2022/07/05 06:38:56;;;;;;;;;;;;;;;39.34;31.36;97441.47;5013812;28;20357;-80
2022/07/05 06:41:21;;;;;;;;;;;;;;;39.86;30.03;97435.53;5013506;28;19917;-81
2022/07/05 06:43:47;;;;;;;;;;;;;;;39.80;29.95;97427.41;5013694;28;20287;-81
2022/07/05 06:46:12;;;;;;;;;;;;;;;39.33;30.98;97434.19;5013783;28;19917;-81
2022/07/05 06:48:37;;;;;;;;;;;;;;;38.99;32.08;97441.44;5013931;28;19952;-79
2022/07/05 06:51:03;;;;;;;;;;;;;;;38.79;30.59;97430.22;5013090;28;19916;-79
2022/07/05 06:53:28;;;;;;;;;;;;;;;39.15;31.24;97434.72;5013010;28;19958;-80
2022/07/05 06:55:54;;;;;;;;;;;;;;;40.10;29.35;97415.25;5013592;28;20366;-78
2022/07/05 06:58:19;;;;;;;;;;;;;;;40.13;29.88;97423.09;5012684;28;19913;-79
2022/07/05 07:00:47;;;;;;;;;;;;;;;40.60;29.35;97429.06;5013521;28;19928;-78
2022/07/05 07:03:12;;;;;;;;;;;;;;;40.06;30.03;97423.38;5013622;28;21288;-79
2022/07/05 07:05:37;;;;;;;;;;;;;;;40.34;30.93;97427.47;5014026;28;19948;-76
2022/07/05 07:10:47;;;;;;;;;;;;;;;40.83;29.31;97417.09;5030569;28;19924;-79
2022/07/05 07:13:12;;;;;;;;;;;;;;;39.97;30.41;97409.13;5013637;28;19917;-79
2022/07/05 07:15:38;;;;;;;;;;;;;;;40.96;29.02;97413.69;5013374;28;20007;-80
2022/07/05 07:18:03;;;;;;;;;;;;;;;39.76;31.68;97409.47;5013169;28;20346;-78
2022/07/05 07:20:28;;;;;;;;;;;;;;;39.49;30.05;97407.84;5023456;28;19917;-80
2022/07/05 07:22:54;;;;;;;;;;;;;;;40.00;30.87;97419.75;5010050;28;20008;-78
2022/07/05 07:25:20;;;;;;;;;;;;;;;39.84;30.75;97406.09;5012189;28;20290;-79
2022/07/05 07:27:46;;;;;;;;;;;;;;;40.03;29.03;97402.38;5012464;28;19917;-79
2022/07/05 07:30:12;;;;;;;;;;;;;;;41.20;28.33;97410.94;5019409;28;19917;-77
2022/07/05 07:32:37;;;;;;;;;;;;;;;40.91;28.14;97399.66;5011596;28;20473;-78
2022/07/05 07:35:03;;;;;;;;;;;;;;;40.69;28.37;97404.88;5011314;28;19917;-78
2022/07/05 07:37:28;;;;;;;;;;;;;;;40.31;28.20;97391.59;5013347;28;19920;-78
2022/07/05 07:39:54;;;;;;;;;;;;;;;41.19;27.97;97385.97;5012930;28;19919;-78
2022/07/05 07:42:19;;;;;;;;;;;;;;;41.82;27.39;97396.03;5012210;28;20329;-78
2022/07/05 07:44:44;;;;;;;;;;;;;;;42.09;26.43;97396.25;5011719;28;19960;-78
2022/07/05 07:47:10;;;;;;;;;;;;;;;41.71;27.04;97388.84;5012590;28;20446;-79
2022/07/05 07:49:36;;;;;;;;;;;;;;;41.45;27.91;97398.66;5012815;28;19917;-78
2022/07/05 07:52:02;;;;;;;;;;;;;;;41.62;28.15;97399.06;5009592;28;19971;-80
2022/07/05 07:54:27;;;;;;;;;;;;;;;42.59;26.55;97394.78;5011968;28;19917;-77
2022/07/05 07:56:52;;;;;;;;;;;;;;;40.30;28.54;97395.56;5012673;28;19913;-78
2022/07/05 07:59:18;;;;;;;;;;;;;;;39.66;28.97;97401.06;5013111;28;19920;-76
2022/07/05 08:01:43;;;;;;;;;;;;;;;40.01;30.78;97404.63;5013034;28;19923;-74
2022/07/05 08:04:09;;;;;;;;;;;;;;;39.56;29.22;97399.16;5012810;28;19960;-78
2022/07/05 08:06:34;;;;;;;;;;;;;;;40.11;28.81;97406.59;5013207;28;19936;-79
2022/07/05 08:08:59;;;;;;;;;;;;;;;40.77;28.62;97411.81;5012741;28;19919;-80
2022/07/05 08:11:25;;;;;;;;;;;;;;;39.96;28.76;97407.44;5012946;28;19928;-77
2022/07/05 08:13:50;;;;;;;;;;;;;;;41.26;27.40;97398.53;5009268;28;19913;-79
2022/07/05 08:16:16;;;;;;;;;;;;;;;40.52;29.33;97404.41;5012319;28;20364;-78
2022/07/05 08:21:31;;;;;;;;;;;;;;;42.69;27.65;97399.44;5012392;28;20012;-79
2022/07/05 08:23:57;;;;;;;;;;;;;;;41.92;26.82;97395.94;5009781;28;19999;-80
2022/07/05 08:26:22;;;;;;;;;;;;;;;41.65;27.02;97387.22;5011415;28;19980;-80
2022/07/05 08:28:48;;;;;;;;;;;;;;;42.25;26.12;97390.47;5009062;28;19913;-82
2022/07/05 08:31:13;;;;;;;;;;;;;;;42.57;26.27;97387.75;5012843;28;20391;-81
2022/07/05 08:33:38;;;;;;;;;;;;;;;41.77;26.88;97387.69;5009931;28;19921;-81
2022/07/05 08:36:04;;;;;;;;;;;;;;;42.23;26.22;97384.31;5013075;28;19913;-82
2022/07/05 08:38:29;;;;;;;;;;;;;;;42.43;26.01;97384.84;5013393;28;19919;-82
2022/07/05 08:40:55;;;;;;;;;;;;;;;43.59;24.39;97384.97;5009452;28;19917;-81
2022/07/05 08:43:22;;;;;;;;;;;;;;;44.29;24.23;97384.72;5013085;28;20292;-81
2022/07/05 08:45:47;;;;;;;;;;;;;;;40.89;27.37;97384.22;5009822;28;20287;-80
2022/07/05 08:48:13;;;;;;;;;;;;;;;42.02;26.51;97378.09;5010776;28;19917;-82
2022/07/05 08:50:39;;;;;;;;;;;;;;;42.13;26.53;97380.47;5011539;28;19917;-84
2022/07/05 08:53:05;;;;;;;;;;;;;;;42.40;24.88;97362.09;5010398;28;19944;-81
2022/07/05 08:55:31;;;;;;;;;;;;;;;42.81;25.51;97368.84;5009223;28;20328;-81
2022/07/05 08:57:56;;;;;;;;;;;;;;;42.99;25.51;97368.00;5009614;28;20316;-83
2022/07/05 09:00:22;;;;;;;;;;;;;;;43.54;25.35;97373.78;5010896;28;19967;-82
2022/07/05 09:02:47;;;;;;;;;;;;;;;43.14;24.48;97364.06;5012388;28;19914;-82
2022/07/05 09:05:14;;;;;;;;;;;;;;;43.39;24.27;97354.34;5013180;28;19913;-82
2022/07/05 09:07:40;;;;;;;;;;;;;;;42.98;25.30;97355.03;5010660;28;20003;-82
2022/07/05 09:10:06;;;;;;;;;;;;;;;43.39;25.50;97357.16;5009752;28;19920;-81
2022/07/05 09:12:32;;;;;;;;;;;;;;;43.65;25.25;97353.56;5011941;28;19928;-83
2022/07/05 09:14:57;;;;;;;;;;;;;;;43.19;24.47;97349.91;5008714;28;19913;-82
2022/07/05 09:17:23;;;;;;;;;;;;;;;43.54;24.11;97354.06;5016776;28;20304;-83
2022/07/05 09:20:04;;;;;;;;;;;;;;;43.83;23.44;97334.06;5012115;28;19936;-84
2022/07/05 09:22:41;;;;;;;;;;;;;;;43.90;22.90;97335.28;5012309;28;20407;-81
2022/07/05 09:25:16;;;;;;;;;;;;;;;43.87;24.42;97340.75;5012473;28;19913;-82
2022/07/05 09:28:02;;;;;;;;;;;;;;;42.58;24.76;97333.16;5007156;28;19925;-82
2022/07/05 09:30:29;;;;;;;;;;;;;;;43.60;24.25;97331.09;5031305;28;20414;-82
2022/07/05 09:33:03;;;;;;;;;;;;;;;44.13;23.66;97334.22;5015393;28;20000;-82
2022/07/05 09:35:29;;;;;;;;;;;;;;;43.89;23.60;97328.00;5019641;28;20300;-82
2022/07/05 09:37:55;;;;;;;;;;;;;;;44.13;23.28;97320.13;5014363;28;19920;-81
2022/07/05 09:40:23;;;;;;;;;;;;;;;44.64;23.39;97321.84;5011767;28;19917;-82
2022/07/05 09:42:49;;;;;;;;;;;;;;;45.18;22.53;97321.56;5014150;28;19912;-81
2022/07/05 09:45:21;;;;;;;;;;;;;;;44.77;23.00;97329.38;5015158;28;19920;-82
2022/07/05 09:47:46;;;;;;;;;;;;;;;45.29;22.58;97316.47;5012757;28;19992;-83
2022/07/05 09:50:13;;;;;;;;;;;;;;;45.67;22.10;97314.91;5015542;28;20299;-82
2022/07/05 09:52:41;;;;;;;;;;;;;;;46.02;21.64;97312.19;5014706;28;19918;-81
2022/07/05 09:55:08;;;;;;;;;;;;;;;45.95;22.10;97308.97;5014674;28;19927;-83
2022/07/05 09:57:34;;;;;;;;;;;;;;;46.37;21.75;97308.25;5013906;28;19909;-82
2022/07/05 10:00:04;;;;;;;;;;;;;;;46.63;22.10;97308.31;5013313;28;19917;-82
2022/07/05 10:02:39;;;;;;;;;;;;;;;47.33;20.69;97307.91;5015898;28;20395;-83
2022/07/05 10:05:14;;;;;;;;;;;;;;;46.96;20.80;97292.47;5014995;28;19917;-82
2022/07/05 10:07:40;;;;;;;;;;;;;;;46.87;21.40;97299.31;5010112;28;19920;-82
2022/07/05 10:10:06;;;;;;;;;;;;;;;46.96;20.79;97292.47;5016504;28;19909;-82
2022/07/05 10:12:31;;;;;;;;;;;;;;;46.76;20.64;97287.47;5017306;28;19917;-82
2022/07/05 10:14:57;;;;;;;;;;;;;;;46.54;21.54;97291.31;5017215;28;20338;-82
2022/07/05 10:17:22;;;;;;;;;;;;;;;46.68;21.09;97288.28;5026776;28;19909;-82
2022/07/05 10:19:48;;;;;;;;;;;;;;;46.61;20.73;97280.28;5015488;28;19913;-83
2022/07/05 10:22:13;;;;;;;;;;;;;;;45.90;21.64;97280.84;5013583;28;19918;-81
2022/07/05 10:24:39;;;;;;;;;;;;;;;46.03;21.79;97283.53;5016459;28;19938;-82
2022/07/05 10:27:05;;;;;;;;;;;;;;;46.89;20.98;97280.78;5013304;28;19913;-82
2022/07/05 10:29:31;;;;;;;;;;;;;;;46.63;21.62;97279.97;5014281;28;19909;-82
2022/07/05 10:31:56;;;;;;;;;;;;;;;47.72;21.33;97284.91;5011460;28;19921;-82
2022/07/05 10:34:22;;;;;;;;;;;;;;;47.77;20.63;97278.22;5012795;28;19971;-82
2022/07/05 10:36:47;;;;;;;;;;;;;;;46.70;21.40;97281.13;5009746;28;19964;-82
2022/07/05 10:39:13;;;;;;;;;;;;;;;45.50;21.88;97268.72;5003991;28;19913;-82
2022/07/05 10:41:39;;;;;;;;;;;;;;;45.11;22.69;97261.84;5002773;28;19917;-82
2022/07/05 10:44:05;;;;;;;;;;;;;;;44.48;23.17;97261.22;5012205;28;19952;-81
2022/07/05 10:46:34;;;;;;;;;;;;;;;43.76;23.62;97249.88;4995991;28;19957;-81
2022/07/05 10:49:09;;;;;;;;;;;;;;;45.81;22.02;97265.84;4996489;28;20391;-83
2022/07/05 10:51:35;;;;;;;;;;;;;;;46.53;21.91;97254.81;4996622;28;20375;-82
2022/07/05 10:54:01;;;;;;;;;;;;;;;46.46;21.66;97246.81;5012817;28;19913;-82
2022/07/05 10:56:26;;;;;;;;;;;;;;;45.92;21.94;97251.06;5012646;28;19924;-81
2022/07/05 10:59:03;;;;;;;;;;;;;;;44.71;23.24;97243.13;4995844;28;19919;-82
2022/07/05 11:01:32;;;;;;;;;;;;;;;44.95;23.06;97243.63;5012448;28;20381;-82
2022/07/05 11:04:01;;;;;;;;;;;;;;;46.27;21.76;97241.47;5012149;28;20450;-82
2022/07/05 11:06:38;;;;;;;;;;;;;;;46.33;21.81;97242.97;4996227;28;20562;-82
2022/07/05 11:09:05;;;;;;;;;;;;;;;45.98;22.34;97244.09;4995961;28;19981;-82
2022/07/05 11:11:33;;;;;;;;;;;;;;;46.53;21.55;97235.00;4996010;28;19918;-82
2022/07/05 11:14:19;;;;;;;;;;;;;;;45.60;22.45;97232.47;5012157;28;19913;-83
2022/07/05 11:16:44;;;;;;;;;;;;;;;44.77;23.31;97224.88;5011920;28;19936;-82
2022/07/05 11:19:16;;;;;;;;;;;;;;;43.70;24.30;97229.41;5011727;28;19913;-81
2022/07/05 11:21:59;;;;;;;;;;;;;;;42.87;25.41;97225.97;4996123;28;19917;-81
2022/07/05 11:24:28;;;;;;;;;;;;;;;43.74;24.79;97221.13;5005695;28;19943;-82
2022/07/05 11:26:57;;;;;;;;;;;;;;;43.66;24.49;97224.69;5010445;28;19913;-82
2022/07/05 11:29:41;;;;;;;;;;;;;;;43.97;24.41;97228.53;5003397;28;19968;-81
2022/07/05 11:32:08;;;;;;;;;;;;;;;44.05;24.41;97224.97;5010733;28;19960;-82
2022/07/05 11:34:33;;;;;;;;;;;;;;;44.81;23.61;97214.63;5005931;28;20003;-81
2022/07/05 11:37:14;;;;;;;;;;;;;;;45.06;22.77;97210.31;5001794;28;20333;-81
2022/07/05 11:39:43;;;;;;;;;;;;;;;44.98;23.21;97197.78;5003419;28;20380;-81
2022/07/05 11:42:09;;;;;;;;;;;;;;;44.44;24.05;97203.72;5010958;28;21243;-82
2022/07/05 11:44:40;;;;;;;;;;;;;;;45.20;23.80;97209.03;5008584;28;19910;-82
2022/07/05 11:47:05;;;;;;;;;;;;;;;45.76;22.98;97207.44;5004035;28;19913;-81
2022/07/05 11:49:31;;;;;;;;;;;;;;;45.12;23.32;97203.34;5007351;28;19983;-81
2022/07/05 11:51:57;;;;;;;;;;;;;;;44.97;23.77;97195.31;5006965;28;20426;-84
2022/07/05 11:54:24;;;;;;;;;;;;;;;45.31;23.18;97192.66;5004999;28;20016;-83
2022/07/05 11:56:50;;;;;;;;;;;;;;;44.28;24.00;97193.97;5003292;28;20000;-82
2022/07/05 11:59:22;;;;;;;;;;;;;;;45.21;23.13;97187.25;5010641;28;19920;-81
2022/07/05 12:01:47;;;;;;;;;;;;;;;45.16;24.24;97184.59;5000268;28;19932;-82
2022/07/05 12:04:26;;;;;;;;;;;;;;;45.39;23.26;97182.53;5005531;28;19913;-83
2022/07/05 12:06:51;;;;;;;;;;;;;;;43.91;24.43;97184.66;5003130;28;20339;-83
2022/07/05 12:09:22;;;;;;;;;;;;;;;43.54;24.98;97182.09;5010203;28;19968;-83
2022/07/05 12:14:46;;;;;;;;;;;;;;;43.76;25.00;97182.22;5003061;28;20426;-84
2022/07/05 12:17:12;;;;;;;;;;;;;;;43.28;25.20;97175.34;5002842;28;20367;-82
2022/07/05 12:19:37;;;;;;;;;;;;;;;42.98;25.29;97165.53;5002693;28;20003;-82
2022/07/05 12:22:03;;;;;;;;;;;;;;;41.87;26.63;97164.63;5003812;28;19952;-82
2022/07/05 12:24:28;;;;;;;;;;;;;;;41.07;28.86;97164.53;5006034;28;19967;-82
2022/07/05 12:26:54;;;;;;;;;;;;;;;40.29;29.63;97172.31;5010420;28;20300;-82
2022/07/05 12:29:21;;;;;;;;;;;;;;;40.00;30.12;97166.63;5011396;28;19913;-82
2022/07/05 12:32:02;;;;;;;;;;;;;;;39.95;30.20;97161.91;4994565;28;19945;-82
2022/07/05 12:34:29;;;;;;;;;;;;;;;40.00;29.97;97167.47;5011303;28;20383;-82
2022/07/05 12:36:54;;;;;;;;;;;;;;;40.66;29.65;97163.28;4994651;28;19921;-81
2022/07/05 12:39:20;;;;;;;;;;;;;;;41.03;29.07;97163.47;4994778;28;19913;-82
2022/07/05 12:41:45;;;;;;;;;;;;;;;41.39;28.66;97166.66;5010172;28;19981;-81
2022/07/05 12:44:11;;;;;;;;;;;;;;;41.16;29.24;97164.72;4994396;28;19913;-82
2022/07/05 12:46:39;;;;;;;;;;;;;;;40.01;30.37;97169.16;5010076;28;19923;-82